Time;durP1;ratioP1;P1;durP2;ratioP2;P2;SDS_P1;SDS_P2;PMS_P1;PMS_P2;Temp;Humidity;BMP_temperature;BMP_pressure;BME280_temperature;BME280_humidity;BME280_pressure;Samples;Min_cycle;Max_cycle;Signal;HPM_P1;HPM_P2
2022/09/30 00:01:43;;;;;;;1.75;1.38;;;;;;;7.99;80.85;100650.47;5097781;28;20184;-69
2022/09/30 00:04:18;;;;;;;1.98;1.10;;;;;;;8.04;80.66;100659.00;5115910;28;20433;-70
2022/09/30 00:06:43;;;;;;;;;;;;;;;7.97;80.44;100657.75;5116375;28;20114;-69
2022/09/30 00:09:11;;;;;;;7.50;1.40;;;;;;;7.95;80.42;100659.69;5097214;28;20008;-69
2022/09/30 00:11:39;;;;;;;3.83;1.40;;;;;;;7.99;80.79;100663.00;5097630;28;20498;-70
2022/09/30 00:14:05;;;;;;;4.53;1.27;;;;;;;7.98;80.63;100663.97;5115873;28;20103;-70
2022/09/30 00:16:35;;;;;;;4.70;1.70;;;;;;;7.87;81.10;100662.03;5115572;28;20031;-72
2022/09/30 00:19:02;;;;;;;2.72;1.40;;;;;;;7.83;81.56;100660.53;5097200;28;20096;-70
2022/09/30 00:21:28;;;;;;;2.63;1.23;;;;;;;7.78;82.01;100662.69;5097178;28;20452;-70
2022/09/30 00:23:54;;;;;;;4.63;1.73;;;;;;;7.74;81.99;100666.56;5097326;28;20038;-69
2022/09/30 00:26:22;;;;;;;1.95;1.38;;;;;;;7.75;82.13;100668.28;5097324;28;20024;-70
2022/09/30 00:28:50;;;;;;;1.90;1.25;;;;;;;7.73;82.14;100670.19;5115931;28;20033;-69
2022/09/30 00:31:18;;;;;;;2.45;1.25;;;;;;;7.73;82.30;100667.53;5096876;28;20069;-69
2022/09/30 00:34:05;;;;;;;5.78;1.33;;;;;;;7.67;82.12;100670.59;5115307;28;20033;-69
2022/09/30 00:36:31;;;;;;;2.25;0.93;;;;;;;7.70;82.22;100675.75;5114913;28;20036;-70
2022/09/30 00:38:57;;;;;;;3.03;1.40;;;;;;;7.72;82.11;100663.97;5115252;28;20111;-70
2022/09/30 00:41:22;;;;;;;1.42;1.23;;;;;;;7.73;82.33;100667.53;5115317;28;20035;-70
2022/09/30 00:43:52;;;;;;;3.92;1.67;;;;;;;7.77;82.32;100677.03;5115505;28;20027;-70
2022/09/30 00:46:21;;;;;;;3.17;1.60;;;;;;;7.79;82.16;100677.78;5114408;28;20085;-70
2022/09/30 00:48:52;;;;;;;1.52;1.08;;;;;;;7.78;81.88;100679.59;5096834;28;20547;-69
2022/09/30 00:51:30;;;;;;;1.30;1.10;;;;;;;7.85;81.71;100682.69;5115011;28;20031;-69
2022/09/30 00:54:05;;;;;;;4.25;1.50;;;;;;;7.92;81.24;100683.16;5096434;28;20108;-70
2022/09/30 00:56:36;;;;;;;1.67;1.20;;;;;;;7.91;81.06;100676.94;5114535;28;20052;-71
2022/09/30 00:59:13;;;;;;;2.53;1.35;;;;;;;7.96;80.85;100680.13;5096292;28;20028;-70
2022/09/30 01:01:41;;;;;;;2.80;1.23;;;;;;;7.96;80.80;100688.16;5114803;28;20023;-70
2022/09/30 01:04:13;;;;;;;1.65;1.17;;;;;;;7.87;81.58;100678.09;5114782;28;20032;-70
2022/09/30 01:06:39;;;;;;;1.48;1.10;;;;;;;7.83;81.47;100676.59;5096351;28;20070;-71
2022/09/30 01:09:05;;;;;;;1.92;1.10;;;;;;;7.90;81.70;100677.91;5096115;28;20162;-70
2022/09/30 01:11:31;;;;;;;2.65;1.00;;;;;;;7.90;81.73;100683.25;5114608;28;20027;-71
2022/09/30 01:14:20;;;;;;;1.50;0.95;;;;;;;7.96;81.61;100682.81;5096597;28;20066;-69
2022/09/30 01:17:15;;;;;;;1.70;0.95;;;;;;;7.98;82.10;100691.59;5096188;28;20020;-69
2022/09/30 01:20:25;;;;;;;1.67;1.02;;;;;;;7.98;81.63;100686.25;5114485;28;20032;-69
2022/09/30 01:23:55;;;;;;;2.78;1.10;;;;;;;8.02;82.07;100685.03;5096333;28;20071;-70
2022/09/30 01:26:44;;;;;;;1.92;1.30;;;;;;;7.95;82.65;100689.13;4986029;28;20064;-70
2022/09/30 01:29:31;;;;;;;2.38;1.00;;;;;;;7.94;82.47;100689.25;5011448;28;20038;-69
2022/09/30 01:32:24;;;;;;;2.00;1.10;;;;;;;7.98;82.44;100690.75;5089487;28;20080;-69
2022/09/30 01:35:16;;;;;;;1.77;0.80;;;;;;;7.92;83.28;100686.69;5095937;28;20539;-68
2022/09/30 01:37:58;;;;;;;5.78;1.50;;;;;;;7.86;83.38;100679.06;5114207;28;20058;-70
2022/09/30 01:40:32;;;;;;;2.55;1.05;;;;;;;7.89;83.40;100686.00;5114250;28;20027;-68
2022/09/30 01:43:10;;;;;;;2.42;1.27;;;;;;;7.87;82.86;100686.13;5113857;28;20073;-71
2022/09/30 01:45:53;;;;;;;2.83;1.30;;;;;;;7.84;83.58;100692.56;5095832;28;20396;-69
2022/09/30 01:48:34;;;;;;;1.83;1.20;;;;;;;7.92;83.17;100697.38;5095693;28;20024;-71
2022/09/30 01:51:08;;;;;;;4.70;1.30;;;;;;;7.84;83.33;100705.94;5095426;28;20031;-71
2022/09/30 01:53:45;;;;;;;2.58;1.38;;;;;;;7.91;83.23;100709.06;5077500;28;20048;-69
2022/09/30 01:56:17;;;;;;;1.90;1.13;;;;;;;7.91;83.14;100711.75;5072812;28;20040;-69
2022/09/30 01:58:52;;;;;;;3.70;1.42;;;;;;;7.81;83.36;100716.00;5072232;28;20036;-71
2022/09/30 02:01:30;;;;;;;5.82;1.08;;;;;;;7.75;84.46;100711.94;5073038;28;20107;-70
2022/09/30 02:04:00;;;;;;;6.93;1.45;;;;;;;7.86;83.66;100716.53;5073126;28;20112;-70
2022/09/30 02:06:34;;;;;;;1.00;0.90;;;;;;;7.83;83.44;100714.94;5071840;28;20040;-69
2022/09/30 02:09:11;;;;;;;1.25;1.15;;;;;;;7.75;83.97;100716.44;5071457;28;20396;-71
2022/09/30 02:11:38;;;;;;;2.55;1.20;;;;;;;7.83;83.81;100724.78;5072735;28;20039;-70
2022/09/30 02:14:18;;;;;;;1.58;1.10;;;;;;;7.76;83.68;100718.16;5072883;28;20173;-70
2022/09/30 02:16:52;;;;;;;1.42;1.00;;;;;;;7.74;84.15;100720.09;5072739;28;20423;-70
2022/09/30 02:19:36;;;;;;;1.20;0.90;;;;;;;7.75;83.62;100716.44;5072414;28;20017;-70
2022/09/30 02:22:27;;;;;;;1.73;1.15;;;;;;;7.77;83.81;100719.88;5072569;28;20036;-70
2022/09/30 02:24:58;;;;;;;1.75;0.90;;;;;;;7.73;83.95;100716.56;5070209;28;20040;-69
2022/09/30 02:27:31;;;;;;;2.75;0.93;;;;;;;7.77;83.68;100718.03;5071291;28;20032;-70
2022/09/30 02:29:59;;;;;;;2.70;1.20;;;;;;;7.71;83.25;100720.25;5072473;28;20447;-71
2022/09/30 02:32:32;;;;;;;4.45;1.02;;;;;;;7.76;83.88;100726.19;5072634;28;20024;-70
2022/09/30 02:35:16;;;;;;;4.88;1.10;;;;;;;7.74;83.82;100722.75;5071018;28;20025;-71
2022/09/30 02:37:50;;;;;;;1.30;1.10;;;;;;;7.73;83.80;100721.03;5072394;28;20064;-70
2022/09/30 02:40:34;;;;;;;2.80;1.27;;;;;;;7.68;84.20;100720.47;5072395;28;20028;-70
2022/09/30 02:43:02;;;;;;;2.17;1.00;;;;;;;7.73;83.98;100724.59;5072277;28;20016;-70
2022/09/30 02:45:33;;;;;;;1.65;1.10;;;;;;;7.76;83.94;100718.16;5072234;28;20033;-70
2022/09/30 02:48:33;;;;;;;4.20;1.40;;;;;;;7.76;83.90;100723.50;5071309;28;20059;-70
2022/09/30 02:51:27;;;;;;;1.45;1.00;;;;;;;7.83;83.15;100722.97;5072030;28;20024;-70
2022/09/30 02:54:03;;;;;;;1.55;1.30;;;;;;;7.85;83.27;100728.22;5100465;28;20082;-70
2022/09/30 02:57:03;;;;;;;3.90;1.10;;;;;;;7.83;83.19;100736.34;5112659;28;20067;-70
2022/09/30 02:59:30;;;;;;;1.92;1.30;;;;;;;7.80;83.05;100727.69;5094379;28;20044;-71
2022/09/30 03:01:56;;;;;;;3.00;1.40;;;;;;;7.74;83.60;100730.78;5112587;28;20384;-69
2022/09/30 03:04:25;;;;;;;2.00;1.08;;;;;;;7.79;83.27;100734.00;5094153;28;20028;-69
2022/09/30 03:06:51;;;;;;;1.55;1.33;;;;;;;7.69;83.72;100730.22;5094492;28;20374;-70
2022/09/30 03:09:17;;;;;;;1.40;1.10;;;;;;;7.63;84.13;100738.69;5115235;28;20031;-69
2022/09/30 03:11:46;;;;;;;4.38;1.30;;;;;;;7.58;84.12;100735.47;5099114;28;20071;-70
2022/09/30 03:14:27;;;;;;;3.30;1.38;;;;;;;7.65;84.01;100731.41;5097441;28;20059;-70
2022/09/30 03:17:27;;;;;;;4.35;1.65;;;;;;;7.64;84.55;100740.41;5094462;28;20552;-69
2022/09/30 03:19:58;;;;;;;7.90;1.40;;;;;;;7.61;84.57;100740.59;5094330;28;20034;-70
2022/09/30 03:22:50;;;;;;;3.08;0.90;;;;;;;7.70;84.73;100739.97;5094197;28;20164;-69
2022/09/30 03:25:20;;;;;;;1.95;1.23;;;;;;;7.77;84.14;100746.63;5094003;28;20035;-70
2022/09/30 03:28:04;;;;;;;4.70;1.55;;;;;;;7.73;84.31;100735.28;5112496;28;20066;-69
2022/09/30 03:30:34;;;;;;;2.00;1.33;;;;;;;7.80;83.56;100736.56;5094215;28;20115;-69
2022/09/30 03:33:12;;;;;;;1.73;1.30;;;;;;;7.79;83.89;100734.00;5093916;28;20476;-69
2022/09/30 03:36:04;;;;;;;1.60;1.30;;;;;;;7.74;83.80;100730.78;5093973;28;20028;-69
2022/09/30 03:39:23;;;;;;;2.50;1.08;;;;;;;7.72;83.61;100738.03;5094186;28;20023;-70
2022/09/30 03:42:01;;;;;;;3.28;1.17;;;;;;;7.72;83.76;100738.03;5022462;28;20400;-69
2022/09/30 03:44:35;;;;;;;1.75;1.00;;;;;;;7.79;83.73;100739.34;5093968;28;20212;-70
2022/09/30 03:47:08;;;;;;;2.97;1.30;;;;;;;7.79;84.10;100734.00;5094051;28;20032;-69
2022/09/30 03:49:41;;;;;;;2.67;0.98;;;;;;;7.78;83.79;100740.31;5093977;28;20024;-70
2022/09/30 03:52:10;;;;;;;4.03;1.08;;;;;;;7.71;84.29;100736.31;5093474;28;20031;-70
2022/09/30 03:54:51;;;;;;;6.22;2.22;;;;;;;7.68;84.44;100741.88;5093661;28;20027;-70
2022/09/30 03:57:17;;;;;;;3.88;1.30;;;;;;;7.68;84.50;100747.25;5111695;28;20034;-69
2022/09/30 03:59:42;;;;;;;3.25;1.38;;;;;;;7.70;84.43;100750.66;5093708;28;20024;-70
2022/09/30 04:02:12;;;;;;;4.63;1.50;;;;;;;7.64;84.74;100751.09;5111805;28;20038;-70
2022/09/30 04:04:39;;;;;;;2.15;0.85;;;;;;;7.61;84.75;100756.66;5093559;28;20023;-70
2022/09/30 04:07:05;;;;;;;1.63;1.00;;;;;;;7.57;84.56;100760.50;5111981;28;20511;-71
2022/09/30 04:09:31;;;;;;;1.63;1.42;;;;;;;7.62;84.65;100758.38;5111936;28;20027;-71
2022/09/30 04:11:57;;;;;;;3.30;1.48;;;;;;;7.60;84.73;100760.31;5093569;28;20404;-71
2022/09/30 04:14:22;;;;;;;2.92;1.15;;;;;;;7.59;84.43;100774.63;5093737;28;20108;-71
2022/09/30 04:16:48;;;;;;;2.00;1.00;;;;;;;7.55;85.05;100780.16;5111779;28;20063;-72
2022/09/30 04:19:14;;;;;;;4.00;1.70;;;;;;;7.54;85.13;100783.81;5093086;28;20030;-70
2022/09/30 04:21:39;;;;;;;8.45;1.58;;;;;;;7.57;84.96;100779.25;5094444;28;20030;-70
2022/09/30 04:24:05;;;;;;;2.03;1.35;;;;;;;7.64;84.72;100783.22;5096938;28;20039;-71
2022/09/30 04:26:31;;;;;;;2.03;1.02;;;;;;;7.69;84.81;100789.09;5115353;28;20034;-72
2022/09/30 04:28:57;;;;;;;2.72;1.80;;;;;;;7.66;84.49;100791.97;5096597;28;20438;-71
2022/09/30 04:31:23;;;;;;;3.53;1.52;;;;;;;7.63;84.73;100784.16;5096822;28;20034;-69
2022/09/30 04:33:50;;;;;;;1.95;1.00;;;;;;;7.64;84.19;100788.56;5115029;28;20032;-70
2022/09/30 04:36:17;;;;;;;3.10;1.15;;;;;;;7.64;84.89;100788.56;5096899;28;20034;-71
2022/09/30 04:38:43;;;;;;;2.17;1.30;;;;;;;7.64;84.55;100791.22;5115032;28;20031;-71
2022/09/30 04:41:15;;;;;;;4.70;1.52;;;;;;;7.61;84.62;100802.16;5114798;28;20027;-69
2022/09/30 04:43:45;;;;;;;4.50;1.20;;;;;;;7.59;85.17;100804.06;5096703;28;20471;-71
2022/09/30 04:46:12;;;;;;;17.15;2.28;;;;;;;7.68;84.71;100806.97;5114686;28;20032;-71
2022/09/30 04:48:38;;;;;;;3.50;1.38;;;;;;;7.67;85.10;100802.59;5114755;28;20036;-70
2022/09/30 04:51:04;;;;;;;4.10;1.40;;;;;;;7.60;85.15;100811.16;5095815;28;20050;-70
2022/09/30 04:53:29;;;;;;;2.55;1.40;;;;;;;7.63;85.07;100814.47;5114599;28;20044;-70
2022/09/30 04:56:00;;;;;;;5.25;1.63;;;;;;;7.68;84.61;100820.34;5114723;28;20436;-70
2022/09/30 04:58:30;;;;;;;2.63;1.52;;;;;;;7.63;85.09;100818.97;5096153;28;20076;-70
2022/09/30 05:01:10;;;;;;;4.25;1.55;;;;;;;7.60;84.80;100814.69;5096113;28;20123;-74
2022/09/30 05:03:37;;;;;;;2.90;1.30;;;;;;;7.57;85.56;100822.06;5114760;28;20039;-71
2022/09/30 05:06:04;;;;;;;4.43;1.90;;;;;;;7.56;85.24;100826.53;5095847;28;20084;-69
2022/09/30 05:08:33;;;;;;;2.90;2.08;;;;;;;7.61;85.36;100828.91;5095403;28;20027;-71
2022/09/30 05:11:01;;;;;;;2.85;1.42;;;;;;;7.66;85.42;100834.81;5095754;28;20051;-71
2022/09/30 05:13:35;;;;;;;3.72;1.27;;;;;;;7.69;84.71;100829.25;5114037;28;20063;-71
2022/09/30 05:16:02;;;;;;;7.30;1.77;;;;;;;7.67;84.74;100829.34;5095600;28;20380;-70
2022/09/30 05:18:28;;;;;;;3.05;1.67;;;;;;;7.69;85.08;100834.59;5114073;28;20106;-71
2022/09/30 05:20:58;;;;;;;4.30;1.67;;;;;;;7.70;84.58;100828.28;5095335;28;20032;-69
2022/09/30 05:23:26;;;;;;;3.08;1.73;;;;;;;7.70;84.81;100838.97;5095321;28;20028;-71
2022/09/30 05:25:53;;;;;;;6.07;1.80;;;;;;;7.72;84.67;100834.38;5095268;28;20065;-71
2022/09/30 05:28:19;;;;;;;6.18;1.75;;;;;;;7.69;85.09;100845.28;5095473;28;20480;-71
2022/09/30 05:30:45;;;;;;;5.10;1.80;;;;;;;7.66;85.11;100842.81;5095436;28;20418;-71
2022/09/30 05:33:12;;;;;;;2.90;1.92;;;;;;;7.73;85.12;100846.84;5094101;28;20032;-72
2022/09/30 05:35:42;;;;;;;4.05;1.77;;;;;;;7.83;84.07;100850.59;5094890;28;20424;-71
2022/09/30 05:38:09;;;;;;;2.15;1.40;;;;;;;7.85;83.55;100851.34;5113253;28;20035;-72
2022/09/30 05:40:38;;;;;;;2.35;1.80;;;;;;;7.86;83.87;100853.06;5094844;28;20031;-72
2022/09/30 05:43:05;;;;;;;5.68;1.50;;;;;;;7.86;83.72;100855.72;5113499;28;20039;-70
2022/09/30 05:45:31;;;;;;;5.43;1.58;;;;;;;7.97;83.29;100857.69;5113123;28;20387;-72
2022/09/30 05:47:57;;;;;;;5.03;1.85;;;;;;;7.87;83.17;100852.09;5094506;28;20046;-72
2022/09/30 05:50:24;;;;;;;9.15;2.15;;;;;;;7.96;83.05;100862.19;5094441;28;20031;-70
2022/09/30 05:52:50;;;;;;;7.55;1.73;;;;;;;8.02;82.66;100859.09;5094722;28;20043;-71
2022/09/30 05:55:17;;;;;;;8.45;1.85;;;;;;;7.99;82.49;100870.00;5094070;28;20398;-71
2022/09/30 05:57:46;;;;;;;7.50;2.05;;;;;;;7.95;82.81;100863.16;5094510;28;20067;-70
2022/09/30 06:00:12;;;;;;;3.20;1.90;;;;;;;8.02;82.94;100863.59;5112784;28;20031;-71
2022/09/30 06:02:38;;;;;;;22.38;2.30;;;;;;;8.13;82.50;100856.56;5112900;28;20077;-71
2022/09/30 06:05:05;;;;;;;4.00;2.22;;;;;;;8.22;82.08;100864.91;5112569;28;20146;-70
2022/09/30 06:07:35;;;;;;;5.40;2.17;;;;;;;8.19;81.54;100868.66;5093914;28;20038;-72
2022/09/30 06:10:06;;;;;;;3.95;2.28;;;;;;;8.15;82.14;100870.69;5093943;28;20031;-72
2022/09/30 06:12:34;;;;;;;3.67;1.90;;;;;;;8.25;81.91;100872.75;5112487;28;20043;-71
2022/09/30 06:14:59;;;;;;;4.28;1.70;;;;;;;8.31;81.56;100875.00;5111850;28;20023;-71
2022/09/30 06:17:25;;;;;;;4.00;2.00;;;;;;;8.33;80.93;100879.28;5092987;28;20391;-72
2022/09/30 06:19:51;;;;;;;6.65;2.80;;;;;;;8.31;80.71;100880.34;5092965;28;20035;-73
2022/09/30 06:22:17;;;;;;;5.85;1.85;;;;;;;8.31;80.67;100875.00;5093717;28;20364;-72
2022/09/30 06:24:44;;;;;;;12.68;2.80;;;;;;;8.32;80.41;100879.38;5112134;28;20530;-72
2022/09/30 06:27:10;;;;;;;2.42;1.85;;;;;;;8.30;80.60;100884.84;5093433;28;20395;-71
2022/09/30 06:29:35;;;;;;;9.10;3.00;;;;;;;8.38;80.14;100892.38;5112156;28;20038;-71
2022/09/30 06:32:01;;;;;;;8.68;2.30;;;;;;;8.35;79.45;100888.09;5111936;28;20059;-72
2022/09/30 06:34:27;;;;;;;2.70;1.90;;;;;;;8.44;79.43;100887.47;5112804;28;20024;-72
2022/09/30 06:36:53;;;;;;;3.35;1.77;;;;;;;8.54;79.05;100894.88;5093376;28;20142;-73
2022/09/30 06:39:18;;;;;;;9.10;1.83;;;;;;;8.50;79.20;100891.56;5093847;28;20042;-72
2022/09/30 06:41:44;;;;;;;4.40;2.08;;;;;;;8.56;79.71;100885.75;5094129;28;20027;-72
2022/09/30 06:44:10;;;;;;;5.38;2.05;;;;;;;8.58;79.26;100894.56;5111959;28;20031;-72
2022/09/30 06:46:36;;;;;;;3.95;1.92;;;;;;;8.56;79.06;100891.09;5111187;28;20034;-71
2022/09/30 06:49:03;;;;;;;3.72;2.33;;;;;;;8.65;78.68;100895.84;5110911;28;20122;-71
2022/09/30 06:51:32;;;;;;;4.35;1.98;;;;;;;8.61;78.30;100894.34;5093161;28;20066;-72
2022/09/30 06:53:58;;;;;;;3.13;1.98;;;;;;;8.69;78.48;100901.84;5092867;28;20504;-72
2022/09/30 06:56:25;;;;;;;4.28;2.08;;;;;;;8.71;78.18;100897.22;5111917;28;20051;-72
2022/09/30 06:58:52;;;;;;;4.75;2.20;;;;;;;8.79;78.11;100913.66;5093380;28;20088;-70
2022/09/30 07:01:19;;;;;;;9.35;5.32;;;;;;;8.78;77.89;100906.56;5111709;28;20118;-70
2022/09/30 07:03:45;;;;;;;11.43;4.47;;;;;;;8.83;78.03;100907.09;5092539;28;20064;-72
2022/09/30 07:06:13;;;;;;;6.80;2.60;;;;;;;8.81;77.86;100901.00;5111528;28;20030;-72
2022/09/30 07:08:39;;;;;;;5.97;2.92;;;;;;;8.86;77.49;100901.50;5111728;28;20099;-72
2022/09/30 07:11:13;;;;;;;5.07;2.55;;;;;;;8.83;77.52;100906.25;5111593;28;20468;-71
2022/09/30 07:13:44;;;;;;;3.72;2.38;;;;;;;8.93;77.16;100899.28;5092781;28;20388;-70
2022/09/30 07:16:12;;;;;;;3.33;2.35;;;;;;;8.97;76.97;100900.75;5092818;28;20397;-71
2022/09/30 07:18:42;;;;;;;5.78;3.70;;;;;;;8.89;76.98;100908.47;5093607;28;20130;-71
2022/09/30 07:21:09;;;;;;;3.17;1.80;;;;;;;9.17;76.58;100908.22;5093176;28;20038;-71
2022/09/30 07:23:35;;;;;;;5.97;3.72;;;;;;;9.15;76.42;100912.00;5092412;28;20379;-70
2022/09/30 07:26:03;;;;;;;3.88;3.00;;;;;;;9.20;75.78;100912.50;5111532;28;20392;-73
2022/09/30 07:28:34;;;;;;;6.63;2.90;;;;;;;9.21;75.41;100919.59;5112480;28;20024;-72
2022/09/30 07:31:05;;;;;;;4.22;2.55;;;;;;;9.28;75.78;100916.38;5092719;28;20028;-73
2022/09/30 07:33:32;;;;;;;7.88;3.10;;;;;;;9.26;75.34;100915.63;5111892;28;20038;-74
2022/09/30 07:35:59;;;;;;;5.38;2.13;;;;;;;9.29;75.14;100919.91;5093424;28;20038;-73
2022/09/30 07:38:28;;;;;;;3.20;1.80;;;;;;;9.22;75.57;100924.84;5112130;28;20027;-72
2022/09/30 07:40:58;;;;;;;5.63;1.88;;;;;;;9.37;74.96;100925.56;5111664;28;20031;-72
2022/09/30 07:43:26;;;;;;;5.13;2.15;;;;;;;9.52;73.74;100923.59;5093190;28;20450;-73
2022/09/30 07:45:55;;;;;;;5.03;2.03;;;;;;;9.66;73.24;100918.09;5093265;28;20032;-73
2022/09/30 07:51:05;;;;;;;5.10;1.77;;;;;;;9.43;73.74;100930.50;5111666;28;20045;-72
2022/09/30 07:53:32;;;;;;;6.78;4.32;;;;;;;9.43;73.28;100922.47;5092732;28;20044;-72
2022/09/30 07:56:03;;;;;;;3.90;2.33;;;;;;;9.76;72.77;100927.19;5094362;28;20031;-71
2022/09/30 07:58:29;;;;;;;3.10;1.83;;;;;;;9.78;71.96;100935.97;5115238;28;20047;-73
2022/09/30 08:00:54;;;;;;;5.18;1.70;;;;;;;9.85;71.83;100931.84;5097106;28;20125;-74
2022/09/30 08:03:20;;;;;;;3.38;1.63;;;;;;;9.96;71.72;100936.44;5096336;28;20052;-72
2022/09/30 08:05:47;;;;;;;2.20;1.80;;;;;;;9.82;70.75;100950.03;5097165;28;20118;-72
2022/09/30 08:08:14;;;;;;;9.02;2.00;;;;;;;9.92;70.29;100943.88;5114735;28;20445;-73
2022/09/30 08:10:40;;;;;;;3.40;2.17;;;;;;;10.19;70.01;100942.75;5096909;28;20129;-71
2022/09/30 08:13:08;;;;;;;4.90;2.13;;;;;;;10.10;69.31;100946.16;5114971;28;20436;-71
2022/09/30 08:15:34;;;;;;;3.65;1.63;;;;;;;10.08;69.57;100948.09;5096443;28;20036;-71
2022/09/30 08:17:59;;;;;;;5.13;1.80;;;;;;;10.03;69.45;100950.25;5096664;28;20110;-73
2022/09/30 08:20:26;;;;;;;3.25;1.92;;;;;;;9.97;69.81;100950.72;5096682;28;20176;-72
2022/09/30 08:22:53;;;;;;;4.28;2.40;;;;;;;10.27;69.65;100951.16;5096529;28;20127;-72
2022/09/30 08:25:20;;;;;;;3.55;2.05;;;;;;;10.33;69.37;100950.69;5114637;28;20032;-72
2022/09/30 08:27:46;;;;;;;4.25;3.20;;;;;;;10.54;68.81;100951.72;5114833;28;20039;-70
2022/09/30 08:30:11;;;;;;;5.50;4.28;;;;;;;10.42;68.58;100950.00;5096496;28;20038;-71
2022/09/30 08:32:37;;;;;;;4.20;2.03;;;;;;;10.32;70.15;100951.66;5096429;28;20027;-74
2022/09/30 08:35:04;;;;;;;5.55;2.20;;;;;;;10.31;70.34;100955.31;5096604;28;20076;-71
2022/09/30 08:37:29;;;;;;;3.70;1.90;;;;;;;10.58;69.43;100956.84;5096673;28;20448;-72
2022/09/30 08:39:55;;;;;;;5.13;2.10;;;;;;;10.82;68.17;100960.34;5096929;28;20141;-71
2022/09/30 08:42:23;;;;;;;3.13;2.00;;;;;;;10.89;67.77;100956.19;5114579;28;20032;-71
2022/09/30 08:44:49;;;;;;;3.92;2.80;;;;;;;10.83;67.42;100957.53;5095938;28;20412;-71
2022/09/30 08:47:17;;;;;;;9.00;2.00;;;;;;;10.73;68.06;100961.03;5095515;28;20051;-70
2022/09/30 08:50:18;;;;;;;4.20;2.30;;;;;;;10.85;67.90;100952.03;5095804;28;20028;-72
2022/09/30 08:52:51;;;;;;;6.22;1.92;;;;;;;10.67;67.47;100950.78;5084356;28;20075;-72
2022/09/30 08:55:23;;;;;;;4.22;1.95;;;;;;;10.46;68.39;100954.16;5071747;28;20139;-72
2022/09/30 08:57:52;;;;;;;3.10;2.28;;;;;;;10.80;68.59;100951.53;5073270;28;20032;-71
2022/09/30 09:00:19;;;;;;;5.05;1.92;;;;;;;11.14;67.15;100945.22;5073063;28;20470;-71
2022/09/30 09:02:48;;;;;;;2.08;1.85;;;;;;;11.17;66.86;100952.19;5073374;28;20043;-71
2022/09/30 09:05:39;;;;;;;5.85;1.98;;;;;;;11.06;66.50;100952.16;5071627;28;20048;-72
2022/09/30 09:08:16;;;;;;;3.05;1.80;;;;;;;11.03;67.10;100947.03;5071069;28;20039;-72
2022/09/30 09:10:45;;;;;;;4.68;2.92;;;;;;;11.03;66.97;100947.03;5073150;28;20421;-71
2022/09/30 09:13:43;;;;;;;3.40;1.85;;;;;;;11.07;66.22;100948.50;5073345;28;20474;-71
2022/09/30 09:16:30;;;;;;;6.90;3.90;;;;;;;11.12;65.66;100963.31;5041355;28;20481;-73
2022/09/30 09:19:12;;;;;;;3.28;2.00;;;;;;;11.20;65.31;100953.78;5071695;28;20473;-70
2022/09/30 09:21:58;;;;;;;3.50;2.00;;;;;;;11.24;65.07;100956.09;5072908;28;20083;-71
2022/09/30 09:24:46;;;;;;;2.42;1.77;;;;;;;11.10;65.59;100954.50;5073020;28;20036;-72
2022/09/30 09:27:24;;;;;;;12.50;2.42;;;;;;;11.24;63.74;100949.84;5072002;28;20029;-71
2022/09/30 09:30:13;;;;;;;4.63;2.50;;;;;;;11.08;64.17;100956.44;5071408;28;20029;-71
2022/09/30 09:32:40;;;;;;;2.00;1.60;;;;;;;11.20;63.61;100946.56;5070994;28;20031;-70
2022/09/30 09:35:26;;;;;;;3.17;1.60;;;;;;;11.36;63.32;100949.72;5072596;28;20528;-73
2022/09/30 09:41:09;;;;;;;2.25;1.85;;;;;;;11.37;63.30;100966.72;5072280;28;20105;-71
2022/09/30 09:43:57;;;;;;;5.70;1.70;;;;;;;11.51;62.54;100973.72;5072320;28;20034;-72
2022/09/30 09:46:33;;;;;;;2.40;1.98;;;;;;;11.75;61.53;100969.88;5070709;28;20370;-71
2022/09/30 09:49:19;;;;;;;2.50;2.10;;;;;;;11.71;61.41;100976.50;5071527;28;20115;-69
2022/09/30 09:51:52;;;;;;;2.78;1.95;;;;;;;11.61;62.39;100978.25;5070894;28;20568;-71
2022/09/30 09:54:21;;;;;;;5.53;2.13;;;;;;;11.67;62.72;100979.56;5112608;28;20055;-70
2022/09/30 09:56:46;;;;;;;4.45;2.20;;;;;;;11.41;64.04;100985.19;5111989;28;20492;-70
2022/09/30 09:59:14;;;;;;;2.35;1.63;;;;;;;11.62;64.30;100971.88;5112231;28;20039;-70
2022/09/30 10:01:46;;;;;;;3.78;1.50;;;;;;;11.59;64.78;100977.50;5094080;28;20114;-70
2022/09/30 10:04:28;;;;;;;2.80;1.80;;;;;;;11.62;65.10;100981.78;5093123;28;20035;-69
2022/09/30 10:07:11;;;;;;;3.50;2.17;;;;;;;11.41;65.95;100992.44;5093489;28;20036;-71
2022/09/30 10:09:39;;;;;;;5.57;1.90;;;;;;;11.50;66.52;100983.63;5112990;28;20035;-69
2022/09/30 10:12:05;;;;;;;4.82;1.80;;;;;;;11.62;65.49;100981.78;5093802;28;20031;-69
2022/09/30 10:14:44;;;;;;;2.28;1.45;;;;;;;11.90;65.10;100996.56;5112228;28;20084;-70
2022/09/30 10:17:24;;;;;;;2.38;1.70;;;;;;;11.74;65.06;100992.41;5112309;28;20029;-70
2022/09/30 10:19:54;;;;;;;3.45;1.85;;;;;;;11.57;65.37;100990.22;5093095;28;20097;-72
2022/09/30 10:22:27;;;;;;;3.38;1.75;;;;;;;11.99;63.67;100985.06;5093714;28;20039;-72
2022/09/30 10:25:09;;;;;;;2.45;1.77;;;;;;;11.86;64.07;100987.03;5093644;28;20031;-71
2022/09/30 10:27:35;;;;;;;3.80;1.38;;;;;;;11.84;63.51;100987.16;5093350;28;20031;-70
2022/09/30 10:30:01;;;;;;;3.00;2.40;;;;;;;11.78;64.15;100992.19;5111922;28;20020;-71
2022/09/30 10:32:28;;;;;;;1.92;1.70;;;;;;;11.73;64.35;100996.06;5093429;28;20081;-71
2022/09/30 10:35:01;;;;;;;2.67;2.45;;;;;;;11.66;64.50;100989.50;5093303;28;20035;-71
2022/09/30 10:37:27;;;;;;;5.57;2.08;;;;;;;11.59;63.94;100988.28;5111963;28;20077;-72
2022/09/30 10:40:07;;;;;;;2.45;1.55;;;;;;;11.70;63.72;100993.63;5093224;28;20027;-70
2022/09/30 10:42:37;;;;;;;2.47;2.28;;;;;;;11.90;63.37;100996.56;5111319;28;20342;-70
2022/09/30 10:45:19;;;;;;;2.67;2.05;;;;;;;11.70;63.20;100996.34;5093589;28;20035;-71
2022/09/30 10:47:49;;;;;;;5.32;1.80;;;;;;;11.86;62.57;101000.50;5093031;28;20418;-70
2022/09/30 10:50:20;;;;;;;4.00;1.42;;;;;;;11.76;61.81;100992.31;5092639;28;20023;-70
2022/09/30 10:53:01;;;;;;;2.47;1.63;;;;;;;11.62;62.26;100993.41;5111509;28;20388;-71
2022/09/30 10:55:33;;;;;;;5.88;2.40;;;;;;;11.93;61.65;100988.25;5110992;28;20061;-71
2022/09/30 10:58:24;;;;;;;1.80;1.30;;;;;;;11.92;60.48;100991.91;5111671;28;20043;-70
2022/09/30 11:01:05;;;;;;;2.70;2.10;;;;;;;11.67;61.57;100985.81;5111396;28;20031;-69
2022/09/30 11:03:46;;;;;;;2.35;1.63;;;;;;;11.90;61.47;100988.50;5092946;28;20050;-70
2022/09/30 11:06:14;;;;;;;3.15;1.27;;;;;;;11.92;61.71;101000.00;5111328;28;20059;-69
2022/09/30 11:09:32;;;;;;;1.48;1.30;;;;;;;12.02;62.46;100992.88;5111737;28;20028;-69
2022/09/30 11:12:09;;;;;;;6.10;1.70;;;;;;;12.12;62.33;100993.84;5009283;28;20034;-69
2022/09/30 11:15:01;;;;;;;4.78;1.90;;;;;;;11.86;62.37;100992.44;4992800;28;20093;-70
2022/09/30 11:17:41;;;;;;;3.28;1.63;;;;;;;12.04;62.66;100993.59;5074317;28;20044;-71
2022/09/30 11:20:08;;;;;;;2.55;1.92;;;;;;;11.85;62.96;100988.88;5093450;28;20032;-70
2022/09/30 11:22:53;;;;;;;2.25;1.75;;;;;;;11.56;63.33;100984.97;5112156;28;20047;-70
2022/09/30 11:25:33;;;;;;;3.03;1.65;;;;;;;11.61;62.99;100983.63;5111659;28;20049;-70
2022/09/30 11:28:25;;;;;;;2.95;1.50;;;;;;;11.86;61.50;100993.28;5111766;28;20475;-70
2022/09/30 11:31:32;;;;;;;4.78;1.58;;;;;;;11.78;62.01;100986.78;5094631;28;20132;-70
2022/09/30 11:34:12;;;;;;;4.85;1.27;;;;;;;11.62;62.07;100987.19;5065683;28;20035;-69
2022/09/30 11:36:49;;;;;;;3.47;1.30;;;;;;;11.68;61.35;100982.13;5097019;28;20035;-70
2022/09/30 11:39:33;;;;;;;1.92;1.40;;;;;;;11.93;62.14;100982.88;5115346;28;20028;-69
2022/09/30 11:42:14;;;;;;;1.85;1.58;;;;;;;12.03;61.35;100981.13;5115037;28;20028;-70
2022/09/30 11:44:43;;;;;;;2.53;1.85;;;;;;;11.77;62.83;100987.78;5096775;28;20027;-69
2022/09/30 11:47:20;;;;;;;2.33;1.52;;;;;;;11.92;62.52;100975.75;5096055;28;20479;-69
2022/09/30 11:50:17;;;;;;;5.22;1.60;;;;;;;11.93;63.17;100977.50;5096615;28;20090;-69
2022/09/30 11:53:15;;;;;;;2.72;1.40;;;;;;;12.18;62.67;100974.47;5100439;28;20502;-69
2022/09/30 11:56:03;;;;;;;2.22;1.20;;;;;;;12.17;61.54;100983.53;5097448;28;20027;-69
2022/09/30 11:58:47;;;;;;;6.15;1.17;;;;;;;12.02;60.19;100974.00;5115747;28;20027;-68
2022/09/30 12:01:24;;;;;;;4.83;0.93;;;;;;;12.21;59.59;100979.59;5096888;28;20023;-70
2022/09/30 12:04:16;;;;;;;10.27;7.90;;;;;;;11.95;60.58;100983.59;5097385;28;20061;-70
2022/09/30 12:06:58;;;;;;;1.38;1.10;;;;;;;11.94;60.57;100981.91;5105510;28;20505;-70